sensor_id;sensor_type;location;lat;lon;timestamp;pressure;altitude;pressure_sealevel;temperature;humidity
37852;BME280;23691;52.486;4.650;2023-04-07T00:02:01;101499.66;;;9.32;88.36
37852;BME280;23691;52.486;4.650;2023-04-07T00:04:27;101498.13;;;9.29;88.40
37852;BME280;23691;52.486;4.650;2023-04-07T00:06:52;101503.88;;;9.24;88.63
37852;BME280;23691;52.486;4.650;2023-04-07T00:09:18;101501.09;;;9.26;88.67
37852;BME280;23691;52.486;4.650;2023-04-07T00:11:43;101503.75;;;9.26;88.63
37852;BME280;23691;52.486;4.650;2023-04-07T00:14:08;101499.25;;;9.27;88.41
37852;BME280;23691;52.486;4.650;2023-04-07T00:16:34;101494.19;;;9.23;88.52
37852;BME280;23691;52.486;4.650;2023-04-07T00:18:59;101498.69;;;9.23;88.63
37852;BME280;23691;52.486;4.650;2023-04-07T00:21:24;101498.69;;;9.23;88.38
37852;BME280;23691;52.486;4.650;2023-04-07T00:23:51;101496.16;;;9.21;88.53
37852;BME280;23691;52.486;4.650;2023-04-07T00:26:16;101502.34;;;9.22;88.54
37852;BME280;23691;52.486;4.650;2023-04-07T00:28:42;101513.59;;;9.16;88.73
37852;BME280;23691;52.486;4.650;2023-04-07T00:31:07;101509.91;;;9.17;88.96
37852;BME280;23691;52.486;4.650;2023-04-07T00:33:32;101508.94;;;9.18;88.77
37852;BME280;23691;52.486;4.650;2023-04-07T00:35:58;101503.59;;;9.18;88.99
37852;BME280;23691;52.486;4.650;2023-04-07T00:38:23;101500.78;;;9.19;88.89
37852;BME280;23691;52.486;4.650;2023-04-07T00:40:49;101502.63;;;9.19;88.84
37852;BME280;23691;52.486;4.650;2023-04-07T00:43:14;101507.81;;;9.20;88.96
37852;BME280;23691;52.486;4.650;2023-04-07T00:45:40;101508.66;;;9.21;88.97
37852;BME280;23691;52.486;4.650;2023-04-07T00:48:05;101511.47;;;9.19;88.70
37852;BME280;23691;52.486;4.650;2023-04-07T00:50:31;101504.44;;;9.18;88.86
37852;BME280;23691;52.486;4.650;2023-04-07T00:52:57;101510.91;;;9.16;88.95
37852;BME280;23691;52.486;4.650;2023-04-07T00:55:22;101505.00;;;9.12;89.22
37852;BME280;23691;52.486;4.650;2023-04-07T00:57:48;101507.66;;;9.12;89.16
37852;BME280;23691;52.486;4.650;2023-04-07T01:00:13;101510.34;;;9.12;89.36
37852;BME280;23691;52.486;4.650;2023-04-07T01:02:49;101510.03;;;9.15;89.60
37852;BME280;23691;52.486;4.650;2023-04-07T01:05:29;101499.66;;;9.12;89.52
37852;BME280;23691;52.486;4.650;2023-04-07T01:08:12;101499.25;;;9.17;89.42
37852;BME280;23691;52.486;4.650;2023-04-07T01:13:29;101504.03;;;9.23;89.13
37852;BME280;23691;52.486;4.650;2023-04-07T01:15:57;101510.22;;;9.23;89.03
37852;BME280;23691;52.486;4.650;2023-04-07T01:18:35;101510.22;;;9.23;88.95
37852;BME280;23691;52.486;4.650;2023-04-07T01:21:05;101504.03;;;9.23;88.86
37852;BME280;23691;52.486;4.650;2023-04-07T01:26:23;101508.81;;;9.29;88.89
37852;BME280;23691;52.486;4.650;2023-04-07T01:31:54;101515.41;;;9.25;88.51
37852;BME280;23691;52.486;4.650;2023-04-07T01:34:21;101515.97;;;9.29;88.56
37852;BME280;23691;52.486;4.650;2023-04-07T01:36:48;101511.47;;;9.29;88.51
37852;BME280;23691;52.486;4.650;2023-04-07T01:39:16;101514.00;;;9.31;88.34
37852;BME280;23691;52.486;4.650;2023-04-07T01:41:43;101512.47;;;9.28;88.32
37852;BME280;23691;52.486;4.650;2023-04-07T01:44:09;101514.56;;;9.24;88.39
37852;BME280;23691;52.486;4.650;2023-04-07T01:46:35;101514.44;;;9.26;88.45
37852;BME280;23691;52.486;4.650;2023-04-07T01:49:01;101517.09;;;9.26;88.31
37852;BME280;23691;52.486;4.650;2023-04-07T01:51:27;101517.81;;;9.28;88.40
37852;BME280;23691;52.486;4.650;2023-04-07T01:53:55;101520.47;;;9.28;88.33
37852;BME280;23691;52.486;4.650;2023-04-07T01:56:21;101522.44;;;9.26;88.23
37852;BME280;23691;52.486;4.650;2023-04-07T01:58:47;101519.19;;;9.22;88.23
37852;BME280;23691;52.486;4.650;2023-04-07T02:01:13;101521.31;;;9.19;88.35
37852;BME280;23691;52.486;4.650;2023-04-07T02:03:49;101517.09;;;9.16;88.38
37852;BME280;23691;52.486;4.650;2023-04-07T02:06:21;101521.72;;;9.14;88.71
37852;BME280;23691;52.486;4.650;2023-04-07T02:08:51;101522.00;;;9.11;88.58
37852;BME280;23691;52.486;4.650;2023-04-07T02:11:20;101529.19;;;9.11;88.82
37852;BME280;23691;52.486;4.650;2023-04-07T02:13:46;101522.13;;;9.10;88.75
37852;BME280;23691;52.486;4.650;2023-04-07T02:16:12;101532.97;;;9.08;89.10
37852;BME280;23691;52.486;4.650;2023-04-07T02:18:39;101523.38;;;9.06;88.97
37852;BME280;23691;52.486;4.650;2023-04-07T02:21:06;101523.66;;;9.02;89.05
37852;BME280;23691;52.486;4.650;2023-04-07T02:23:36;101528.16;;;9.02;89.14
37852;BME280;23691;52.486;4.650;2023-04-07T02:26:02;101532.50;;;9.03;89.27
37852;BME280;23691;52.486;4.650;2023-04-07T02:28:27;101530.84;;;9.02;89.20
37852;BME280;23691;52.486;4.650;2023-04-07T02:30:52;101529.16;;;9.01;89.09
37852;BME280;23691;52.486;4.650;2023-04-07T02:33:18;101536.56;;;8.97;89.09
37852;BME280;23691;52.486;4.650;2023-04-07T02:35:43;101533.78;;;8.99;89.50
37852;BME280;23691;52.486;4.650;2023-04-07T02:38:08;101530.41;;;8.97;89.26
37852;BME280;23691;52.486;4.650;2023-04-07T02:40:34;101526.75;;;8.98;89.34
37852;BME280;23691;52.486;4.650;2023-04-07T02:43:00;101528.44;;;8.99;89.24
37852;BME280;23691;52.486;4.650;2023-04-07T02:45:26;101531.66;;;9.02;89.03
37852;BME280;23691;52.486;4.650;2023-04-07T02:47:51;101530.84;;;9.02;88.87
37852;BME280;23691;52.486;4.650;2023-04-07T02:50:16;101527.31;;;9.01;88.91
37852;BME280;23691;52.486;4.650;2023-04-07T02:52:42;101531.53;;;9.04;88.92
37852;BME280;23691;52.486;4.650;2023-04-07T02:55:08;101540.25;;;9.06;88.70
37852;BME280;23691;52.486;4.650;2023-04-07T02:57:33;101530.56;;;9.05;88.63
37852;BME280;23691;52.486;4.650;2023-04-07T02:59:59;101545.00;;;9.02;88.64
37852;BME280;23691;52.486;4.650;2023-04-07T03:02:24;101538.72;;;9.03;88.60
37852;BME280;23691;52.486;4.650;2023-04-07T03:04:50;101547.69;;;9.02;88.62
37852;BME280;23691;52.486;4.650;2023-04-07T03:07:17;101544.31;;;9.00;88.53
37852;BME280;23691;52.486;4.650;2023-04-07T03:09:42;101543.47;;;9.00;88.57
37852;BME280;23691;52.486;4.650;2023-04-07T03:12:07;101552.47;;;8.99;88.54
37852;BME280;23691;52.486;4.650;2023-04-07T03:14:33;101541.50;;;8.92;88.41
37852;BME280;23691;52.486;4.650;2023-04-07T03:16:58;101542.31;;;8.93;88.39
37852;BME280;23691;52.486;4.650;2023-04-07T03:19:23;101535.88;;;8.95;88.10
37852;BME280;23691;52.486;4.650;2023-04-07T03:21:49;101542.75;;;8.98;87.97
37852;BME280;23691;52.486;4.650;2023-04-07T03:24:14;101539.25;;;8.97;87.96
37852;BME280;23691;52.486;4.650;2023-04-07T03:26:40;101541.06;;;8.97;87.86
37852;BME280;23691;52.486;4.650;2023-04-07T03:29:06;101543.03;;;8.95;87.85
37852;BME280;23691;52.486;4.650;2023-04-07T03:31:31;101541.38;;;8.94;87.79
37852;BME280;23691;52.486;4.650;2023-04-07T03:33:56;101541.38;;;8.94;87.94
37852;BME280;23691;52.486;4.650;2023-04-07T03:36:22;101535.88;;;8.95;87.91
37852;BME280;23691;52.486;4.650;2023-04-07T03:38:48;101527.72;;;8.97;87.46
37852;BME280;23691;52.486;4.650;2023-04-07T03:41:13;101540.94;;;8.98;87.52
37852;BME280;23691;52.486;4.650;2023-04-07T03:43:39;101538.53;;;8.95;87.48
37852;BME280;23691;52.486;4.650;2023-04-07T03:46:06;101530.81;;;8.92;87.52
37852;BME280;23691;52.486;4.650;2023-04-07T03:48:31;101537.13;;;8.91;87.48
37852;BME280;23691;52.486;4.650;2023-04-07T03:50:57;101533.75;;;8.89;87.30
37852;BME280;23691;52.486;4.650;2023-04-07T03:53:22;101536.28;;;8.91;87.64
37852;BME280;23691;52.486;4.650;2023-04-07T03:55:47;101542.47;;;8.91;87.55
37852;BME280;23691;52.486;4.650;2023-04-07T03:58:13;101546.09;;;8.90;87.51
37852;BME280;23691;52.486;4.650;2023-04-07T04:00:38;101540.94;;;8.89;87.85
37852;BME280;23691;52.486;4.650;2023-04-07T04:03:04;101547.09;;;8.89;87.82
37852;BME280;23691;52.486;4.650;2023-04-07T04:05:29;101544.44;;;8.89;87.83
37852;BME280;23691;52.486;4.650;2023-04-07T04:07:55;101547.22;;;8.88;87.93
37852;BME280;23691;52.486;4.650;2023-04-07T04:10:20;101548.66;;;8.92;87.85
37852;BME280;23691;52.486;4.650;2023-04-07T04:12:46;101551.31;;;8.92;87.92
37852;BME280;23691;52.486;4.650;2023-04-07T04:15:12;101554.00;;;8.92;87.58
37852;BME280;23691;52.486;4.650;2023-04-07T04:17:37;101556.94;;;8.89;88.16
37852;BME280;23691;52.486;4.650;2023-04-07T04:20:03;101557.78;;;8.89;88.14
37852;BME280;23691;52.486;4.650;2023-04-07T04:22:28;101547.22;;;8.88;88.16
37852;BME280;23691;52.486;4.650;2023-04-07T04:24:54;101553.28;;;8.90;88.04
37852;BME280;23691;52.486;4.650;2023-04-07T04:27:19;101545.41;;;8.88;88.08
37852;BME280;23691;52.486;4.650;2023-04-07T04:29:45;101547.94;;;8.90;87.99
37852;BME280;23691;52.486;4.650;2023-04-07T04:32:11;101549.63;;;8.91;87.95
37852;BME280;23691;52.486;4.650;2023-04-07T04:34:37;101546.25;;;8.89;88.07
37852;BME280;23691;52.486;4.650;2023-04-07T04:37:02;101562.28;;;8.89;88.26
37852;BME280;23691;52.486;4.650;2023-04-07T04:39:27;101555.22;;;8.88;88.32
37852;BME280;23691;52.486;4.650;2023-04-07T04:41:53;101555.22;;;8.88;88.24
37852;BME280;23691;52.486;4.650;2023-04-07T04:44:18;101559.72;;;8.87;88.36
37852;BME280;23691;52.486;4.650;2023-04-07T04:46:43;101557.19;;;8.86;88.49
37852;BME280;23691;52.486;4.650;2023-04-07T04:49:09;101555.63;;;8.83;88.64
37852;BME280;23691;52.486;4.650;2023-04-07T04:51:34;101561.56;;;8.87;88.71
37852;BME280;23691;52.486;4.650;2023-04-07T04:53:59;101560.56;;;8.88;88.52
37852;BME280;23691;52.486;4.650;2023-04-07T04:56:25;101559.59;;;8.89;88.54
37852;BME280;23691;52.486;4.650;2023-04-07T04:58:50;101567.47;;;8.90;88.24
37852;BME280;23691;52.486;4.650;2023-04-07T05:01:16;101570.84;;;8.92;88.29
37852;BME280;23691;52.486;4.650;2023-04-07T05:03:41;101578.97;;;8.91;88.31
37852;BME280;23691;52.486;4.650;2023-04-07T05:06:06;101572.94;;;8.89;88.30
37852;BME280;23691;52.486;4.650;2023-04-07T05:08:32;101572.09;;;8.88;88.38
37852;BME280;23691;52.486;4.650;2023-04-07T05:10:57;101583.47;;;8.90;88.49
37852;BME280;23691;52.486;4.650;2023-04-07T05:13:23;101586.00;;;8.92;88.31
37852;BME280;23691;52.486;4.650;2023-04-07T05:15:49;101592.31;;;8.91;88.14
37852;BME280;23691;52.486;4.650;2023-04-07T05:18:15;101594.16;;;8.90;88.29
37852;BME280;23691;52.486;4.650;2023-04-07T05:20:40;101592.31;;;8.91;88.33
37852;BME280;23691;52.486;4.650;2023-04-07T05:23:05;101588.81;;;8.90;88.20
37852;BME280;23691;52.486;4.650;2023-04-07T05:25:31;101600.31;;;8.91;88.28
37852;BME280;23691;52.486;4.650;2023-04-07T05:27:57;101601.19;;;8.91;88.26
37852;BME280;23691;52.486;4.650;2023-04-07T05:30:24;101600.31;;;8.91;88.17
37852;BME280;23691;52.486;4.650;2023-04-07T05:32:49;101596.81;;;8.90;88.14
37852;BME280;23691;52.486;4.650;2023-04-07T05:35:15;101597.41;;;8.94;88.06
37852;BME280;23691;52.486;4.650;2023-04-07T05:37:40;101598.13;;;8.96;88.04
37852;BME280;23691;52.486;4.650;2023-04-07T05:40:06;101599.78;;;8.97;88.01
37852;BME280;23691;52.486;4.650;2023-04-07T05:42:31;101599.91;;;8.95;87.79
37852;BME280;23691;52.486;4.650;2023-04-07T05:44:57;101602.59;;;8.95;87.93
37852;BME280;23691;52.486;4.650;2023-04-07T05:47:22;101608.09;;;8.94;87.92
37852;BME280;23691;52.486;4.650;2023-04-07T05:49:47;101600.63;;;8.97;87.84
37852;BME280;23691;52.486;4.650;2023-04-07T05:52:13;101610.47;;;8.97;87.80
37852;BME280;23691;52.486;4.650;2023-04-07T05:54:39;101606.81;;;8.98;87.61
37852;BME280;23691;52.486;4.650;2023-04-07T05:57:05;101620.75;;;9.01;87.34
37852;BME280;23691;52.486;4.650;2023-04-07T05:59:31;101611.03;;;9.00;87.08
37852;BME280;23691;52.486;4.650;2023-04-07T06:01:57;101617.09;;;9.02;87.14
37852;BME280;23691;52.486;4.650;2023-04-07T06:04:22;101622.16;;;9.06;86.94
37852;BME280;23691;52.486;4.650;2023-04-07T06:06:50;101619.47;;;9.06;86.73
37852;BME280;23691;52.486;4.650;2023-04-07T06:09:22;101620.47;;;9.05;86.47
37852;BME280;23691;52.486;4.650;2023-04-07T06:11:47;101625.53;;;9.08;85.98
37852;BME280;23691;52.486;4.650;2023-04-07T06:14:13;101633.97;;;9.13;85.81
37852;BME280;23691;52.486;4.650;2023-04-07T06:16:46;101635.41;;;9.17;85.49
37852;BME280;23691;52.486;4.650;2023-04-07T06:19:11;101636.41;;;9.16;85.08
37852;BME280;23691;52.486;4.650;2023-04-07T06:21:36;101637.22;;;9.16;84.84
37852;BME280;23691;52.486;4.650;2023-04-07T06:24:02;101638.63;;;9.20;84.34
37852;BME280;23691;52.486;4.650;2023-04-07T06:31:30;101655.13;;;9.26;83.80
37852;BME280;23691;52.486;4.650;2023-04-07T06:34:15;101649.34;;;9.30;83.46
37852;BME280;23691;52.486;4.650;2023-04-07T06:37:06;101657.22;;;9.32;83.15
37852;BME280;23691;52.486;4.650;2023-04-07T06:44:32;101660.31;;;9.27;82.47
37852;BME280;23691;52.486;4.650;2023-04-07T06:47:03;101662.97;;;9.27;82.06
37852;BME280;23691;52.486;4.650;2023-04-07T06:49:31;101661.84;;;9.30;82.14
37852;BME280;23691;52.486;4.650;2023-04-07T06:52:05;101672.41;;;9.31;82.19
37852;BME280;23691;52.486;4.650;2023-04-07T06:54:30;101665.13;;;9.33;82.16
37852;BME280;23691;52.486;4.650;2023-04-07T06:56:56;101672.56;;;9.39;81.71
37852;BME280;23691;52.486;4.650;2023-04-07T06:59:21;101676.66;;;9.43;81.53
37852;BME280;23691;52.486;4.650;2023-04-07T07:01:47;101679.63;;;9.50;81.29
37852;BME280;23691;52.486;4.650;2023-04-07T07:04:13;101674.00;;;9.53;81.23
37852;BME280;23691;52.486;4.650;2023-04-07T07:06:38;101673.72;;;9.56;81.41
37852;BME280;23691;52.486;4.650;2023-04-07T07:09:07;101676.28;;;9.58;81.26
37852;BME280;23691;52.486;4.650;2023-04-07T07:11:32;101675.16;;;9.60;81.11
37852;BME280;23691;52.486;4.650;2023-04-07T07:13:57;101681.06;;;9.64;80.86
37852;BME280;23691;52.486;4.650;2023-04-07T07:16:23;101683.31;;;9.68;80.80
37852;BME280;23691;52.486;4.650;2023-04-07T07:18:49;101682.31;;;9.70;80.77
37852;BME280;23691;52.486;4.650;2023-04-07T07:21:19;101686.41;;;9.64;80.83
37852;BME280;23691;52.486;4.650;2023-04-07T07:23:44;101687.81;;;9.58;80.81
37852;BME280;23691;52.486;4.650;2023-04-07T07:26:10;101688.91;;;9.56;81.44
37852;BME280;23691;52.486;4.650;2023-04-07T07:28:35;101693.97;;;9.59;81.19
37852;BME280;23691;52.486;4.650;2023-04-07T07:31:10;101695.97;;;9.66;81.09
37852;BME280;23691;52.486;4.650;2023-04-07T07:33:37;101692.88;;;9.71;80.89
37852;BME280;23691;52.486;4.650;2023-04-07T07:36:07;101699.78;;;9.74;80.96
37852;BME280;23691;52.486;4.650;2023-04-07T07:38:32;101698.38;;;9.79;80.79
37852;BME280;23691;52.486;4.650;2023-04-07T07:40:58;101704.31;;;9.93;80.36
37852;BME280;23691;52.486;4.650;2023-04-07T07:43:23;101705.59;;;10.08;80.34
37852;BME280;23691;52.486;4.650;2023-04-07T07:45:51;101706.72;;;10.15;80.11
37852;BME280;23691;52.486;4.650;2023-04-07T07:48:16;101713.59;;;10.18;80.01
37852;BME280;23691;52.486;4.650;2023-04-07T07:50:42;101709.38;;;10.25;79.98
37852;BME280;23691;52.486;4.650;2023-04-07T07:53:09;101708.84;;;10.31;79.64
37852;BME280;23691;52.486;4.650;2023-04-07T07:55:37;101710.97;;;10.37;79.42
37852;BME280;23691;52.486;4.650;2023-04-07T07:58:02;101717.28;;;10.46;79.05
37852;BME280;23691;52.486;4.650;2023-04-07T08:00:28;101719.41;;;10.52;78.95
37852;BME280;23691;52.486;4.650;2023-04-07T08:02:53;101723.75;;;10.43;78.42
37852;BME280;23691;52.486;4.650;2023-04-07T08:05:19;101725.03;;;10.39;78.92
37852;BME280;23691;52.486;4.650;2023-04-07T08:07:45;101728.13;;;10.44;78.69
37852;BME280;23691;52.486;4.650;2023-04-07T08:10:11;101731.94;;;10.51;78.49
37852;BME280;23691;52.486;4.650;2023-04-07T08:12:36;101733.78;;;10.51;78.43
37852;BME280;23691;52.486;4.650;2023-04-07T08:15:02;101735.03;;;10.57;78.35
37852;BME280;23691;52.486;4.650;2023-04-07T08:17:31;101740.94;;;10.60;78.37
37852;BME280;23691;52.486;4.650;2023-04-07T08:19:56;101739.09;;;10.61;78.33
37852;BME280;23691;52.486;4.650;2023-04-07T08:22:21;101745.31;;;10.61;78.24
37852;BME280;23691;52.486;4.650;2023-04-07T08:24:47;101748.13;;;10.60;78.52
37852;BME280;23691;52.486;4.650;2023-04-07T08:27:12;101748.25;;;10.58;78.44
37852;BME280;23691;52.486;4.650;2023-04-07T08:29:38;101745.72;;;10.66;78.21
37852;BME280;23691;52.486;4.650;2023-04-07T08:32:03;101744.28;;;10.82;78.12
37852;BME280;23691;52.486;4.650;2023-04-07T08:34:29;101745.63;;;11.05;77.60
37852;BME280;23691;52.486;4.650;2023-04-07T08:36:54;101740.78;;;11.18;76.89
37852;BME280;23691;52.486;4.650;2023-04-07T08:39:20;101742.72;;;11.26;76.80
37852;BME280;23691;52.486;4.650;2023-04-07T08:41:47;101745.41;;;11.26;76.16
37852;BME280;23691;52.486;4.650;2023-04-07T08:44:14;101746.38;;;11.35;76.26
37852;BME280;23691;52.486;4.650;2023-04-07T08:46:40;101753.69;;;11.43;75.84
37852;BME280;23691;52.486;4.650;2023-04-07T08:49:10;101752.41;;;11.37;75.79
37852;BME280;23691;52.486;4.650;2023-04-07T08:51:45;101756.50;;;11.41;75.50
37852;BME280;23691;52.486;4.650;2023-04-07T08:54:16;101757.72;;;11.47;75.55
37852;BME280;23691;52.486;4.650;2023-04-07T08:56:43;101756.31;;;11.52;75.07
37852;BME280;23691;52.486;4.650;2023-04-07T08:59:11;101771.25;;;11.55;74.82
37852;BME280;23691;52.486;4.650;2023-04-07T09:01:38;101769.94;;;11.59;74.44
37852;BME280;23691;52.486;4.650;2023-04-07T09:04:04;101780.69;;;11.49;73.51
37852;BME280;23691;52.486;4.650;2023-04-07T09:06:31;101779.44;;;11.53;73.65
37852;BME280;23691;52.486;4.650;2023-04-07T09:08:57;101782.06;;;11.63;72.96
37852;BME280;23691;52.486;4.650;2023-04-07T09:11:23;101775.56;;;11.66;72.86
37852;BME280;23691;52.486;4.650;2023-04-07T09:13:49;101780.38;;;11.62;72.71
37852;BME280;23691;52.486;4.650;2023-04-07T09:16:15;101775.03;;;11.62;72.28
37852;BME280;23691;52.486;4.650;2023-04-07T09:18:41;101779.78;;;11.68;72.13
37852;BME280;23691;52.486;4.650;2023-04-07T09:21:06;101786.69;;;11.71;72.19
37852;BME280;23691;52.486;4.650;2023-04-07T09:23:37;101780.88;;;11.75;72.36
37852;BME280;23691;52.486;4.650;2023-04-07T09:26:25;101790.00;;;11.92;72.53
37852;BME280;23691;52.486;4.650;2023-04-07T09:28:57;101787.69;;;11.97;72.55
37852;BME280;23691;52.486;4.650;2023-04-07T09:31:43;101784.19;;;11.97;72.34
37852;BME280;23691;52.486;4.650;2023-04-07T09:34:23;101785.09;;;12.06;72.46
37852;BME280;23691;52.486;4.650;2023-04-07T09:36:49;101791.41;;;12.14;72.50
37852;BME280;23691;52.486;4.650;2023-04-07T09:39:15;101793.13;;;12.06;71.86
37852;BME280;23691;52.486;4.650;2023-04-07T09:41:40;101792.53;;;12.12;71.99
37852;BME280;23691;52.486;4.650;2023-04-07T09:44:06;101796.00;;;12.22;71.86
37852;BME280;23691;52.486;4.650;2023-04-07T09:46:31;101788.25;;;12.19;71.99
37852;BME280;23691;52.486;4.650;2023-04-07T09:49:02;101792.03;;;12.26;72.04
37852;BME280;23691;52.486;4.650;2023-04-07T09:51:31;101787.88;;;12.32;72.00
37852;BME280;23691;52.486;4.650;2023-04-07T09:53:58;101794.41;;;12.29;71.77
37852;BME280;23691;52.486;4.650;2023-04-07T09:56:23;101802.38;;;12.21;71.74
37852;BME280;23691;52.486;4.650;2023-04-07T09:58:50;101804.13;;;12.12;71.85
37852;BME280;23691;52.486;4.650;2023-04-07T10:01:16;101806.78;;;11.94;72.03
37852;BME280;23691;52.486;4.650;2023-04-07T10:03:42;101807.34;;;11.88;72.34
37852;BME280;23691;52.486;4.650;2023-04-07T10:06:08;101805.56;;;11.79;72.67
37852;BME280;23691;52.486;4.650;2023-04-07T10:08:35;101799.78;;;11.74;72.91
37852;BME280;23691;52.486;4.650;2023-04-07T10:11:02;101808.81;;;11.73;72.85
37852;BME280;23691;52.486;4.650;2023-04-07T10:13:30;101807.69;;;11.75;72.94
37852;BME280;23691;52.486;4.650;2023-04-07T10:15:57;101812.47;;;11.81;72.82
37852;BME280;23691;52.486;4.650;2023-04-07T10:18:28;101807.81;;;11.74;72.87
37852;BME280;23691;52.486;4.650;2023-04-07T10:20:59;101810.41;;;11.66;73.12
37852;BME280;23691;52.486;4.650;2023-04-07T10:23:58;101823.41;;;11.60;73.42
37852;BME280;23691;52.486;4.650;2023-04-07T10:26:33;101819.34;;;11.47;73.83
37852;BME280;23691;52.486;4.650;2023-04-07T10:29:04;101823.22;;;11.34;73.93
37852;BME280;23691;52.486;4.650;2023-04-07T10:31:31;101819.59;;;11.26;74.17
37852;BME280;23691;52.486;4.650;2023-04-07T10:33:57;101823.09;;;11.26;74.69
37852;BME280;23691;52.486;4.650;2023-04-07T10:36:22;101824.34;;;11.32;74.76
37852;BME280;23691;52.486;4.650;2023-04-07T10:41:40;101831.81;;;11.38;75.42
37852;BME280;23691;52.486;4.650;2023-04-07T10:44:07;101834.50;;;11.38;75.44
37852;BME280;23691;52.486;4.650;2023-04-07T10:47:03;101836.03;;;11.41;75.78
37852;BME280;23691;52.486;4.650;2023-04-07T10:49:33;101832.94;;;11.35;76.12
37852;BME280;23691;52.486;4.650;2023-04-07T10:54:37;101840.22;;;11.53;75.92
37852;BME280;23691;52.486;4.650;2023-04-07T10:59:34;101838.03;;;11.66;75.52
37852;BME280;23691;52.486;4.650;2023-04-07T11:04:38;101852.59;;;11.64;75.10
37852;BME280;23691;52.486;4.650;2023-04-07T11:07:05;101843.72;;;11.63;75.13
37852;BME280;23691;52.486;4.650;2023-04-07T11:09:31;101832.69;;;11.66;75.32
37852;BME280;23691;52.486;4.650;2023-04-07T11:11:56;101841.84;;;11.73;74.32
37852;BME280;23691;52.486;4.650;2023-04-07T11:14:28;101845.31;;;11.83;74.31
37852;BME280;23691;52.486;4.650;2023-04-07T11:16:58;101850.97;;;11.80;74.38
37852;BME280;23691;52.486;4.650;2023-04-07T11:19:25;101848.28;;;11.90;74.00
37852;BME280;23691;52.486;4.650;2023-04-07T11:22:13;101854.78;;;11.88;74.49
37852;BME280;23691;52.486;4.650;2023-04-07T11:24:41;101857.78;;;11.75;74.88
37852;BME280;23691;52.486;4.650;2023-04-07T11:27:13;101854.44;;;11.63;75.44
37852;BME280;23691;52.486;4.650;2023-04-07T11:29:39;101860.94;;;11.60;76.00
37852;BME280;23691;52.486;4.650;2023-04-07T11:32:05;101858.97;;;11.63;76.03
37852;BME280;23691;52.486;4.650;2023-04-07T11:34:32;101860.38;;;11.67;75.96
37852;BME280;23691;52.486;4.650;2023-04-07T11:37:17;101856.53;;;11.69;76.06
37852;BME280;23691;52.486;4.650;2023-04-07T11:39:42;101864.50;;;11.89;75.78
37852;BME280;23691;52.486;4.650;2023-04-07T11:42:10;101861.81;;;11.89;75.61
37852;BME280;23691;52.486;4.650;2023-04-07T11:44:44;101866.34;;;11.88;75.64
37852;BME280;23691;52.486;4.650;2023-04-07T11:47:10;101865.09;;;11.82;75.63
37852;BME280;23691;52.486;4.650;2023-04-07T11:49:43;101865.91;;;11.93;75.36
37852;BME280;23691;52.486;4.650;2023-04-07T11:52:10;101870.03;;;11.87;75.50
37852;BME280;23691;52.486;4.650;2023-04-07T11:57:05;101876.97;;;11.70;75.39
37852;BME280;23691;52.486;4.650;2023-04-07T11:59:36;101876.53;;;11.75;75.17
37852;BME280;23691;52.486;4.650;2023-04-07T12:02:01;101875.13;;;11.71;74.88
37852;BME280;23691;52.486;4.650;2023-04-07T12:04:33;101881.03;;;11.84;74.67
37852;BME280;23691;52.486;4.650;2023-04-07T12:07:09;101890.13;;;12.01;74.44
37852;BME280;23691;52.486;4.650;2023-04-07T12:09:35;101886.88;;;12.07;74.09
37852;BME280;23691;52.486;4.650;2023-04-07T12:12:02;101891.28;;;11.98;74.25
37852;BME280;23691;52.486;4.650;2023-04-07T12:14:29;101884.34;;;12.06;73.97
37852;BME280;23691;52.486;4.650;2023-04-07T12:16:55;101890.16;;;12.29;73.55
37852;BME280;23691;52.486;4.650;2023-04-07T12:19:26;101888.56;;;12.36;73.01
37852;BME280;23691;52.486;4.650;2023-04-07T12:21:55;101885.78;;;12.28;72.52
37852;BME280;23691;52.486;4.650;2023-04-07T12:24:21;101891.56;;;12.51;72.38
37852;BME280;23691;52.486;4.650;2023-04-07T12:26:47;101889.53;;;12.80;71.78
37852;BME280;23691;52.486;4.650;2023-04-07T12:29:13;101880.38;;;12.91;71.27
37852;BME280;23691;52.486;4.650;2023-04-07T12:31:39;101892.03;;;12.82;70.74
37852;BME280;23691;52.486;4.650;2023-04-07T12:34:07;101901.19;;;12.71;71.02
37852;BME280;23691;52.486;4.650;2023-04-07T12:36:33;101900.47;;;12.51;70.88
37852;BME280;23691;52.486;4.650;2023-04-07T12:38:59;101898.09;;;12.48;71.03
37852;BME280;23691;52.486;4.650;2023-04-07T12:41:25;101901.94;;;12.45;71.37
37852;BME280;23691;52.486;4.650;2023-04-07T12:43:51;101906.59;;;12.43;71.39
37852;BME280;23691;52.486;4.650;2023-04-07T12:46:17;101909.91;;;12.28;71.25
37852;BME280;23691;52.486;4.650;2023-04-07T12:48:45;101908.72;;;12.12;71.73
37852;BME280;23691;52.486;4.650;2023-04-07T12:51:14;101908.06;;;12.00;72.25
37852;BME280;23691;52.486;4.650;2023-04-07T12:53:40;101905.00;;;11.95;72.51
37852;BME280;23691;52.486;4.650;2023-04-07T12:56:06;101916.88;;;11.83;72.72
37852;BME280;23691;52.486;4.650;2023-04-07T12:58:35;101910.69;;;11.73;73.38
37852;BME280;23691;52.486;4.650;2023-04-07T13:01:00;101905.47;;;11.71;73.66
37852;BME280;23691;52.486;4.650;2023-04-07T13:03:26;101919.78;;;11.62;73.94
37852;BME280;23691;52.486;4.650;2023-04-07T13:05:53;101927.09;;;11.60;74.28
37852;BME280;23691;52.486;4.650;2023-04-07T13:08:28;101923.72;;;11.58;74.47
37852;BME280;23691;52.486;4.650;2023-04-07T13:11:03;101918.91;;;11.61;74.50
37852;BME280;23691;52.486;4.650;2023-04-07T13:13:29;101922.00;;;11.76;74.47
37852;BME280;23691;52.486;4.650;2023-04-07T13:15:55;101919.75;;;11.72;74.30
37852;BME280;23691;52.486;4.650;2023-04-07T13:18:21;101924.84;;;11.65;74.52
37852;BME280;23691;52.486;4.650;2023-04-07T13:20:46;101927.81;;;11.62;74.83
37852;BME280;23691;52.486;4.650;2023-04-07T13:23:12;101925.16;;;11.52;75.35
37852;BME280;23691;52.486;4.650;2023-04-07T13:25:37;101923.47;;;11.42;75.55
37852;BME280;23691;52.486;4.650;2023-04-07T13:28:03;101925.59;;;11.38;75.95